Time;durP1;ratioP1;P1;durP2;ratioP2;P2;SDS_P1;SDS_P2;PMS_P1;PMS_P2;Temp;Humidity;BMP_temperature;BMP_pressure;BME280_temperature;BME280_humidity;BME280_pressure;Samples;Min_cycle;Max_cycle;Signal;HPM_P1;HPM_P2
2023/08/15 00:00:19;;;;;;;9.27;6.30;;;17.80;99.90;;;;;;5123730;27;20512;-80
2023/08/15 00:02:45;;;;;;;8.38;5.75;;;17.80;99.90;;;;;;5111870;27;20043;-80
2023/08/15 00:05:10;;;;;;;8.88;6.28;;;17.80;99.90;;;;;;5111863;27;20077;-80
2023/08/15 00:07:36;;;;;;;7.38;5.95;;;17.80;99.90;;;;;;5129782;27;20023;-80
2023/08/15 00:10:01;;;;;;;12.20;7.22;;;17.80;99.90;;;;;;5094558;27;20095;-80
2023/08/15 00:12:27;;;;;;;9.32;6.40;;;17.70;99.90;;;;;;5112044;27;20130;-80
2023/08/15 00:14:53;;;;;;;8.75;6.05;;;17.70;99.90;;;;;;5112087;27;20760;-80
2023/08/15 00:17:18;;;;;;;9.10;6.32;;;17.70;99.90;;;;;;5111414;27;20039;-80
2023/08/15 00:19:44;;;;;;;10.27;6.85;;;17.70;99.90;;;;;;5111320;28;20082;-80
2023/08/15 00:22:10;;;;;;;7.65;6.70;;;17.60;99.90;;;;;;5128325;27;20039;-80
2023/08/15 00:24:35;;;;;;;11.70;6.70;;;17.60;99.90;;;;;;5127851;27;20039;-80
2023/08/15 00:27:01;;;;;;;9.88;6.63;;;17.60;99.90;;;;;;5130006;27;20102;-80
2023/08/15 00:29:27;;;;;;;11.43;6.55;;;17.60;99.90;;;;;;5128737;27;20481;-80
2023/08/15 00:31:52;;;;;;;11.13;6.57;;;17.50;99.90;;;;;;5117038;27;20389;-80
2023/08/15 00:34:18;;;;;;;13.30;7.25;;;17.50;99.90;;;;;;5111595;27;20114;-80
2023/08/15 00:36:44;;;;;;;10.65;6.68;;;17.50;99.90;;;;;;5111004;28;20039;-80
2023/08/15 00:39:09;;;;;;;8.95;6.30;;;17.50;99.90;;;;;;5111509;28;20039;-80
2023/08/15 00:41:35;;;;;;;10.07;6.05;;;17.40;99.90;;;;;;5111235;28;20043;-80
2023/08/15 00:44:01;;;;;;;9.45;6.97;;;17.40;99.90;;;;;;5094498;28;20047;-80
2023/08/15 00:46:28;;;;;;;9.38;6.53;;;17.40;99.90;;;;;;5094352;28;20050;-80
2023/08/15 00:48:55;;;;;;;14.32;6.78;;;17.40;99.90;;;;;;5113288;27;20036;-80
2023/08/15 00:51:20;;;;;;;12.38;7.05;;;17.40;99.90;;;;;;5100876;27;20031;-80
2023/08/15 00:53:47;;;;;;;10.88;7.68;;;17.40;99.90;;;;;;5131660;27;20095;-80
2023/08/15 00:56:14;;;;;;;13.73;7.25;;;17.30;99.90;;;;;;5114522;27;20038;-80
2023/08/15 00:58:41;;;;;;;10.40;6.47;;;17.40;99.90;;;;;;5114507;27;20038;-80
2023/08/15 01:01:14;;;;;;;10.70;7.07;;;17.40;99.90;;;;;;5131562;27;20639;-81
2023/08/15 01:03:39;;;;;;;7.65;6.00;;;17.30;99.90;;;;;;5131515;27;20035;-80
2023/08/15 01:06:05;;;;;;;10.73;6.30;;;17.20;99.90;;;;;;5112372;27;20039;-80
2023/08/15 01:08:31;;;;;;;17.13;6.65;;;17.30;99.90;;;;;;5129263;28;20027;-80
2023/08/15 01:10:57;;;;;;;10.65;6.43;;;17.40;99.90;;;;;;5128395;28;20509;-80
2023/08/15 01:13:31;;;;;;;12.40;6.57;;;17.40;99.90;;;;;;5128302;28;20042;-80
2023/08/15 01:15:57;;;;;;;10.60;6.53;;;17.40;99.90;;;;;;5111175;28;20116;-80
2023/08/15 01:18:37;;;;;;;9.70;6.13;;;17.40;99.90;;;;;;5094080;28;20039;-80
2023/08/15 01:21:04;;;;;;;11.27;6.82;;;17.30;99.90;;;;;;5113705;27;20055;-81
2023/08/15 01:23:42;;;;;;;9.48;6.07;;;17.30;99.90;;;;;;5131241;27;20041;-80
2023/08/15 01:26:08;;;;;;;12.98;6.85;;;17.30;99.90;;;;;;5131337;27;20047;-80
2023/08/15 01:28:33;;;;;;;8.27;6.35;;;17.30;99.90;;;;;;5114096;27;20031;-80
2023/08/15 01:31:09;;;;;;;8.85;5.65;;;17.30;99.90;;;;;;5131370;27;20030;-80
2023/08/15 01:33:39;;;;;;;11.00;6.85;;;17.30;99.90;;;;;;5114150;27;20078;-80
2023/08/15 01:36:21;;;;;;;12.38;6.70;;;17.30;99.90;;;;;;5114245;27;20035;-80
2023/08/15 01:38:59;;;;;;;13.82;7.00;;;17.30;99.90;;;;;;5114811;27;20435;-80
2023/08/15 01:41:25;;;;;;;11.00;6.32;;;17.20;99.90;;;;;;5114446;27;20051;-80
2023/08/15 01:43:53;;;;;;;12.77;6.40;;;17.20;99.90;;;;;;5131460;27;20035;-80
2023/08/15 01:46:19;;;;;;;8.43;6.30;;;17.20;99.90;;;;;;5114452;27;20039;-80
2023/08/15 01:48:45;;;;;;;11.15;6.25;;;17.10;99.90;;;;;;5115142;27;20023;-80
2023/08/15 01:51:10;;;;;;;11.90;7.15;;;17.10;99.90;;;;;;5131660;27;20496;-80
2023/08/15 01:53:37;;;;;;;9.32;6.10;;;17.10;99.90;;;;;;5131340;27;20389;-80
2023/08/15 01:56:04;;;;;;;9.60;6.30;;;17.10;99.90;;;;;;5114145;27;20042;-80
2023/08/15 01:58:29;;;;;;;10.15;6.68;;;17.10;99.90;;;;;;5114059;27;20088;-80
2023/08/15 02:00:55;;;;;;;10.18;6.80;;;17.10;99.90;;;;;;5131160;27;20282;-80
2023/08/15 02:03:21;;;;;;;10.13;6.15;;;17.10;99.90;;;;;;5136282;27;20365;-80
2023/08/15 02:05:46;;;;;;;8.32;6.18;;;17.00;99.90;;;;;;5117262;27;20125;-80
2023/08/15 02:08:12;;;;;;;12.85;7.15;;;17.00;99.90;;;;;;5117696;27;20038;-80
2023/08/15 02:10:38;;;;;;;9.50;6.68;;;17.00;99.90;;;;;;5134502;27;20039;-80
2023/08/15 02:13:03;;;;;;;12.40;6.75;;;17.00;99.90;;;;;;5117375;27;20074;-80
2023/08/15 02:15:29;;;;;;;8.38;6.47;;;17.00;99.90;;;;;;5134667;27;20288;-79
2023/08/15 02:17:55;;;;;;;13.13;6.90;;;17.00;99.90;;;;;;5113593;27;20069;-80
2023/08/15 02:20:21;;;;;;;13.25;7.43;;;17.00;99.90;;;;;;5113440;27;20051;-80
2023/08/15 02:22:46;;;;;;;13.43;7.18;;;17.00;99.90;;;;;;5131020;27;20047;-80
2023/08/15 02:25:12;;;;;;;9.02;6.97;;;17.00;99.90;;;;;;5096617;27;20341;-80
2023/08/15 02:27:38;;;;;;;9.32;6.95;;;17.00;99.90;;;;;;5113628;27;20389;-80
2023/08/15 02:30:05;;;;;;;12.00;6.70;;;17.00;99.90;;;;;;5130757;27;20065;-80
2023/08/15 02:32:31;;;;;;;11.40;7.38;;;17.00;99.90;;;;;;5097306;27;20039;-80
2023/08/15 02:34:56;;;;;;;10.57;7.25;;;17.10;99.90;;;;;;5134089;27;20373;-80
2023/08/15 02:37:22;;;;;;;10.80;6.70;;;17.10;99.90;;;;;;5116874;27;20122;-80
2023/08/15 02:39:48;;;;;;;9.35;6.78;;;17.10;99.90;;;;;;5152514;27;20041;-80
2023/08/15 02:42:13;;;;;;;15.65;7.32;;;17.10;99.90;;;;;;5133742;27;20132;-80
2023/08/15 02:44:39;;;;;;;11.30;7.43;;;17.10;99.90;;;;;;5116598;27;20071;-80
2023/08/15 02:47:05;;;;;;;11.38;8.18;;;17.10;99.90;;;;;;5115315;27;20033;-80
2023/08/15 02:49:31;;;;;;;12.80;7.43;;;17.10;99.90;;;;;;5131600;27;20035;-80
2023/08/15 02:51:56;;;;;;;17.00;8.43;;;17.20;99.90;;;;;;5096174;27;20035;-80
2023/08/15 02:54:22;;;;;;;12.95;7.63;;;17.10;99.90;;;;;;5096217;27;20398;-80
2023/08/15 02:56:48;;;;;;;10.27;7.80;;;17.20;99.90;;;;;;5131301;27;20122;-80
2023/08/15 02:59:13;;;;;;;14.18;9.55;;;17.20;99.90;;;;;;5113208;27;20103;-80
2023/08/15 03:01:39;;;;;;;15.43;9.52;;;17.30;99.90;;;;;;5112542;27;20039;-80
2023/08/15 03:04:09;;;;;;;13.45;9.75;;;17.20;99.90;;;;;;5150490;27;20031;-80
2023/08/15 03:06:35;;;;;;;14.75;9.95;;;17.40;99.90;;;;;;5133747;27;20031;-80
2023/08/15 03:09:01;;;;;;;19.10;9.27;;;17.40;99.90;;;;;;5151890;27;20066;-80
2023/08/15 03:11:28;;;;;;;13.25;9.93;;;17.50;99.90;;;;;;5133543;27;20081;-80
2023/08/15 03:13:54;;;;;;;15.43;9.20;;;17.50;99.90;;;;;;5151975;27;20050;-81
2023/08/15 03:16:20;;;;;;;17.13;12.02;;;17.50;99.90;;;;;;5115813;27;20043;-80
2023/08/15 03:18:46;;;;;;;17.50;12.18;;;17.60;99.90;;;;;;5132891;27;20043;-80
2023/08/15 03:21:12;;;;;;;19.40;12.32;;;17.60;99.90;;;;;;5132950;27;20179;-80
2023/08/15 03:23:38;;;;;;;22.13;13.18;;;17.60;99.90;;;;;;5116292;27;20488;-80
2023/08/15 03:26:05;;;;;;;17.33;12.63;;;17.70;99.90;;;;;;5132923;27;20086;-80
2023/08/15 03:28:32;;;;;;;18.33;12.57;;;17.70;99.90;;;;;;5115780;27;20061;-80
2023/08/15 03:31:02;;;;;;;17.08;12.95;;;17.80;99.90;;;;;;5132662;27;20112;-80
2023/08/15 03:33:28;;;;;;;16.80;12.15;;;17.80;99.90;;;;;;5097522;27;20072;-80
2023/08/15 03:35:53;;;;;;;23.45;13.57;;;17.80;99.90;;;;;;5130627;27;20107;-80
2023/08/15 03:38:21;;;;;;;19.83;13.73;;;17.80;99.90;;;;;;5112621;27;20050;-81
2023/08/15 03:40:49;;;;;;;18.15;13.38;;;17.90;99.90;;;;;;5130762;27;20458;-80
2023/08/15 03:43:15;;;;;;;19.13;13.98;;;17.90;99.90;;;;;;5112238;27;20460;-80
2023/08/15 03:45:41;;;;;;;18.45;12.60;;;17.90;99.90;;;;;;5130114;27;20160;-80
2023/08/15 03:48:08;;;;;;;15.52;13.50;;;18.00;99.90;;;;;;5143261;27;20127;-80
2023/08/15 03:50:35;;;;;;;17.25;12.02;;;18.00;99.90;;;;;;5095020;27;20039;-80
2023/08/15 03:53:01;;;;;;;17.10;12.52;;;18.10;99.90;;;;;;5095216;27;20528;-80
2023/08/15 03:55:30;;;;;;;18.73;14.00;;;18.10;99.90;;;;;;5095376;27;20218;-80
2023/08/15 03:57:57;;;;;;;17.60;12.95;;;18.00;99.90;;;;;;5130429;27;20027;-80
2023/08/15 04:00:24;;;;;;;22.77;13.90;;;18.10;99.90;;;;;;5129025;27;20046;-80
2023/08/15 04:02:50;;;;;;;16.75;13.20;;;18.10;99.90;;;;;;5111875;27;20188;-80
2023/08/15 04:05:17;;;;;;;18.27;14.95;;;18.10;99.90;;;;;;5111869;27;20039;-80
2023/08/15 04:07:43;;;;;;;27.35;16.02;;;18.10;99.90;;;;;;5111705;27;20057;-81
2023/08/15 04:10:11;;;;;;;23.00;14.70;;;18.10;99.90;;;;;;5130465;27;20043;-80
2023/08/15 04:12:38;;;;;;;18.63;13.30;;;18.20;99.90;;;;;;5094450;27;20082;-80
2023/08/15 04:15:04;;;;;;;19.63;14.65;;;18.20;99.90;;;;;;5128568;27;20392;-80
2023/08/15 04:17:30;;;;;;;21.90;13.68;;;18.20;99.90;;;;;;5094660;27;20038;-80
2023/08/15 04:19:56;;;;;;;18.65;14.82;;;18.20;99.90;;;;;;5129828;27;20055;-80
2023/08/15 04:22:21;;;;;;;20.50;15.18;;;18.20;99.90;;;;;;5128701;27;20190;-81
2023/08/15 04:24:47;;;;;;;28.17;16.63;;;18.30;99.90;;;;;;5111533;28;20035;-80
2023/08/15 04:27:13;;;;;;;20.33;13.90;;;18.30;99.90;;;;;;5111406;28;20031;-80
2023/08/15 04:29:38;;;;;;;15.90;13.55;;;18.30;99.90;;;;;;5111064;27;20403;-80
2023/08/15 04:32:04;;;;;;;15.80;12.13;;;18.30;99.90;;;;;;5129633;27;20496;-80
2023/08/15 04:34:30;;;;;;;17.70;14.77;;;18.30;99.90;;;;;;5111624;28;20134;-80
2023/08/15 04:36:55;;;;;;;25.90;15.70;;;18.30;99.90;;;;;;5111243;27;20034;-80
2023/08/15 04:39:21;;;;;;;22.27;16.40;;;18.20;99.90;;;;;;5111174;28;20155;-80
2023/08/15 04:41:47;;;;;;;16.98;13.82;;;18.20;99.90;;;;;;5129720;28;20039;-81
2023/08/15 04:44:13;;;;;;;24.98;16.33;;;18.20;99.90;;;;;;5110672;28;20043;-80
2023/08/15 04:46:39;;;;;;;24.25;18.10;;;18.20;99.90;;;;;;5111365;28;20042;-80
2023/08/15 04:49:04;;;;;;;19.88;16.15;;;18.20;99.90;;;;;;5129474;28;20031;-80
2023/08/15 04:51:30;;;;;;;24.95;16.98;;;18.20;99.90;;;;;;5111127;28;20031;-80
2023/08/15 04:53:56;;;;;;;26.80;19.13;;;18.20;99.90;;;;;;5111175;28;20047;-80
2023/08/15 04:56:22;;;;;;;21.83;15.05;;;18.20;99.90;;;;;;5111243;28;20049;-80
2023/08/15 04:58:48;;;;;;;29.92;16.85;;;18.20;99.90;;;;;;5110735;28;20069;-80
2023/08/15 05:01:14;;;;;;;18.00;15.05;;;18.20;99.90;;;;;;5111063;28;20126;-80
2023/08/15 05:03:40;;;;;;;20.30;14.95;;;18.30;99.90;;;;;;5129428;28;20043;-80
2023/08/15 05:06:06;;;;;;;19.80;14.05;;;18.30;99.90;;;;;;5094070;28;20035;-80
2023/08/15 05:08:32;;;;;;;21.15;15.55;;;18.30;99.90;;;;;;5111016;28;20046;-80
2023/08/15 05:10:58;;;;;;;20.75;15.68;;;18.30;99.90;;;;;;5112973;27;20039;-80
2023/08/15 05:13:24;;;;;;;24.02;17.42;;;18.30;99.90;;;;;;5114882;27;20398;-80
2023/08/15 05:15:50;;;;;;;25.40;18.20;;;18.30;99.90;;;;;;5132146;27;20042;-80
2023/08/15 05:18:16;;;;;;;23.38;14.63;;;18.40;99.90;;;;;;5115238;27;20035;-80
2023/08/15 05:20:45;;;;;;;20.25;15.45;;;18.40;99.90;;;;;;5116942;27;20047;-80
2023/08/15 05:23:10;;;;;;;24.40;14.82;;;18.40;99.90;;;;;;5154275;27;20043;-80
2023/08/15 05:25:36;;;;;;;18.92;14.15;;;18.50;99.90;;;;;;5135607;27;20038;-80
2023/08/15 05:28:04;;;;;;;17.52;12.52;;;18.50;99.90;;;;;;5134965;27;20034;-80
2023/08/15 05:30:31;;;;;;;16.08;13.50;;;18.60;99.90;;;;;;5117951;27;20035;-80
2023/08/15 05:32:58;;;;;;;20.67;14.07;;;18.60;99.90;;;;;;5114550;27;20043;-80
2023/08/15 05:35:24;;;;;;;15.65;12.82;;;18.70;99.90;;;;;;5132891;27;20485;-80
2023/08/15 05:37:49;;;;;;;17.73;12.73;;;18.70;99.90;;;;;;5114595;27;20095;-81
2023/08/15 05:40:15;;;;;;;19.02;13.32;;;18.70;99.90;;;;;;5131686;27;20035;-80
2023/08/15 05:42:41;;;;;;;22.92;12.77;;;18.80;99.90;;;;;;5132569;27;20035;-80
2023/08/15 05:45:07;;;;;;;18.27;11.80;;;18.90;99.90;;;;;;5132915;27;20037;-80
2023/08/15 05:47:33;;;;;;;17.35;11.38;;;18.90;99.90;;;;;;5115387;27;20495;-80
2023/08/15 05:49:59;;;;;;;23.95;13.20;;;19.00;99.90;;;;;;5142225;27;20031;-80
2023/08/15 05:52:26;;;;;;;16.40;11.20;;;19.10;99.90;;;;;;5150950;27;20039;-81
2023/08/15 05:54:52;;;;;;;23.08;13.38;;;19.20;99.90;;;;;;5134431;27;20039;-80
2023/08/15 05:57:18;;;;;;;17.23;11.25;;;19.20;99.90;;;;;;5135094;27;20042;-81
2023/08/15 05:59:43;;;;;;;15.35;11.75;;;19.30;99.90;;;;;;5134852;27;20503;-80
2023/08/15 06:02:09;;;;;;;19.90;12.68;;;19.40;99.90;;;;;;5117585;27;20319;-81
2023/08/15 06:04:35;;;;;;;18.13;12.20;;;19.50;99.90;;;;;;5117800;27;20198;-81
2023/08/15 06:07:02;;;;;;;16.27;11.88;;;19.60;99.90;;;;;;5115961;27;20535;-80
2023/08/15 06:09:28;;;;;;;15.10;10.75;;;19.70;99.90;;;;;;5134496;27;20038;-80
2023/08/15 06:11:54;;;;;;;18.60;11.52;;;19.70;99.90;;;;;;5117935;27;20050;-80
2023/08/15 06:14:20;;;;;;;16.10;12.02;;;19.70;99.90;;;;;;5134642;27;20042;-80
2023/08/15 06:16:46;;;;;;;15.10;10.77;;;19.70;99.90;;;;;;5117501;27;20038;-81
2023/08/15 06:19:11;;;;;;;14.82;11.05;;;19.90;99.90;;;;;;5132997;27;20035;-80
2023/08/15 06:21:37;;;;;;;17.88;10.93;;;20.20;99.90;;;;;;5115806;27;20192;-80
2023/08/15 06:24:03;;;;;;;14.57;11.52;;;20.30;99.90;;;;;;5134009;27;20119;-80
2023/08/15 06:26:29;;;;;;;13.82;10.13;;;20.20;99.90;;;;;;5134252;27;20031;-81
2023/08/15 06:28:54;;;;;;;14.23;10.73;;;20.10;99.90;;;;;;5134369;27;20038;-80
2023/08/15 06:31:21;;;;;;;23.38;10.85;;;20.20;99.90;;;;;;5117193;27;20114;-81
2023/08/15 06:33:46;;;;;;;13.30;10.20;;;20.60;99.90;;;;;;5116936;27;20030;-81
2023/08/15 06:36:12;;;;;;;17.40;9.85;;;21.20;99.90;;;;;;5151042;27;20122;-81
2023/08/15 06:38:37;;;;;;;14.38;10.35;;;21.50;99.90;;;;;;5133756;27;20138;-80
2023/08/15 06:41:03;;;;;;;15.25;9.90;;;21.60;99.90;;;;;;5134171;27;20495;-81
2023/08/15 06:43:29;;;;;;;13.63;10.73;;;21.80;99.90;;;;;;5139838;27;20034;-81
2023/08/15 06:45:54;;;;;;;14.57;10.07;;;21.90;99.90;;;;;;5154501;27;20035;-81
2023/08/15 06:48:20;;;;;;;16.67;10.65;;;21.90;99.90;;;;;;5137357;27;20399;-80
2023/08/15 06:50:46;;;;;;;23.05;10.85;;;21.80;99.90;;;;;;5154370;27;20548;-80
2023/08/15 06:53:12;;;;;;;13.70;11.30;;;22.10;99.90;;;;;;5136731;27;20030;-81
2023/08/15 06:55:37;;;;;;;11.80;10.10;;;22.90;99.90;;;;;;5154553;27;20094;-81
2023/08/15 06:58:04;;;;;;;11.18;9.23;;;23.20;99.90;;;;;;5172873;27;20045;-80
2023/08/15 07:00:30;;;;;;;12.15;10.15;;;23.20;99.90;;;;;;5172719;27;20487;-81
2023/08/15 07:02:56;;;;;;;13.55;9.52;;;23.10;99.90;;;;;;5173066;27;20034;-81
2023/08/15 07:05:21;;;;;;;12.35;7.93;;;23.40;99.90;;;;;;5137443;27;20038;-81
2023/08/15 07:07:47;;;;;;;11.07;8.10;;;23.40;99.90;;;;;;5136429;27;20079;-81
2023/08/15 07:10:12;;;;;;;11.70;7.55;;;23.30;99.90;;;;;;5172945;27;20117;-80
2023/08/15 07:12:38;;;;;;;12.38;7.85;;;23.10;99.90;;;;;;5154018;27;20133;-81
2023/08/15 07:15:04;;;;;;;14.80;8.02;;;23.10;99.90;;;;;;5133815;27;20039;-80
2023/08/15 07:17:30;;;;;;;14.68;8.48;;;23.00;99.90;;;;;;5133295;27;20117;-81
2023/08/15 07:19:56;;;;;;;11.35;7.13;;;23.00;99.90;;;;;;5133222;27;20184;-80
2023/08/15 07:22:21;;;;;;;11.43;7.55;;;23.00;99.90;;;;;;5115531;27;20047;-81
2023/08/15 07:24:47;;;;;;;17.35;7.75;;;22.70;99.90;;;;;;5116043;27;20046;-81
2023/08/15 07:27:13;;;;;;;13.35;8.05;;;22.80;99.90;;;;;;5115904;27;20030;-81
2023/08/15 07:29:38;;;;;;;13.50;7.10;;;22.90;99.90;;;;;;5169456;27;20292;-80
2023/08/15 07:32:06;;;;;;;10.13;7.05;;;23.60;99.90;;;;;;5153924;27;20044;-81
2023/08/15 07:34:32;;;;;;;14.80;9.05;;;24.60;99.90;;;;;;5136583;27;20334;-82
2023/08/15 07:36:57;;;;;;;12.05;7.90;;;25.70;99.90;;;;;;5135938;27;20613;-81
2023/08/15 07:39:23;;;;;;;12.52;8.80;;;26.40;99.90;;;;;;5136310;27;20030;-81
2023/08/15 07:41:49;;;;;;;12.73;8.82;;;27.20;99.90;;;;;;5153417;27;20034;-81
2023/08/15 07:44:15;;;;;;;17.98;16.33;;;27.70;99.90;;;;;;5136653;27;20035;-81
2023/08/15 07:46:40;;;;;;;44.50;40.17;;;28.20;99.90;;;;;;5115533;27;20508;-81
2023/08/15 07:49:06;;;;;;;64.00;57.72;;;28.50;99.90;;;;;;5115504;27;20472;-81
2023/08/15 07:51:31;;;;;;;134.07;119.43;;;28.80;99.90;;;;;;5132167;27;20070;-82
2023/08/15 07:53:57;;;;;;;115.80;103.55;;;29.30;99.90;;;;;;5115563;27;20407;-81
2023/08/15 07:56:23;;;;;;;241.93;165.88;;;29.50;99.90;;;;;;5115383;27;20165;-82
2023/08/15 07:58:48;;;;;;;255.52;195.60;;;29.50;99.90;;;;;;5151106;27;20046;-82
2023/08/15 08:01:14;;;;;;;413.00;267.40;;;29.40;99.90;;;;;;5115205;27;20117;-81
2023/08/15 08:03:42;;;;;;;476.02;308.13;;;29.30;99.90;;;;;;5115403;27;20031;-82
2023/08/15 08:06:09;;;;;;;399.73;193.95;;;28.10;99.90;;;;;;5131923;27;20516;-81
2023/08/15 08:08:34;;;;;;;349.23;152.23;;;27.20;99.90;;;;;;5132579;27;20054;-81
2023/08/15 08:11:00;;;;;;;411.23;155.75;;;26.30;99.90;;;;;;5115187;27;20564;-81
2023/08/15 08:13:26;;;;;;;206.60;129.07;;;25.40;99.90;;;;;;5146171;27;20040;-81
2023/08/15 08:15:51;;;;;;;126.45;78.50;;;24.70;99.90;;;;;;5153234;27;20125;-81
2023/08/15 08:18:17;;;;;;;114.70;79.25;;;24.30;99.90;;;;;;5135775;27;20052;-81
2023/08/15 08:20:43;;;;;;;99.78;86.35;;;24.30;99.90;;;;;;5170935;27;20406;-81
2023/08/15 08:23:08;;;;;;;44.08;39.38;;;24.80;99.90;;;;;;5152851;27;20042;-81
2023/08/15 08:25:34;;;;;;;103.93;93.57;;;25.30;99.90;;;;;;5153000;27;20030;-81
2023/08/15 08:28:00;;;;;;;117.03;105.78;;;26.20;99.90;;;;;;5135188;27;20473;-81
2023/08/15 08:30:25;;;;;;;212.00;156.82;;;27.10;99.90;;;;;;5171705;27;20442;-81
2023/08/15 08:32:51;;;;;;;283.23;235.73;;;27.70;99.90;;;;;;5171330;27;20034;-81
2023/08/15 08:35:17;;;;;;;486.85;373.15;;;28.00;99.90;;;;;;5152339;27;20042;-81
2023/08/15 08:37:45;;;;;;;374.90;274.10;;;28.10;99.90;;;;;;5171426;27;20449;-81
2023/08/15 08:40:12;;;;;;;727.75;341.92;;;27.60;99.90;;;;;;5171426;27;20081;-81
2023/08/15 08:42:43;;;;;;;620.88;442.65;;;27.20;99.90;;;;;;5140783;27;20041;-82
2023/08/15 08:45:09;;;;;;;265.05;148.15;;;26.70;99.90;;;;;;5131190;27;20512;-81
2023/08/15 08:47:39;;;;;;;318.60;189.57;;;26.00;99.90;;;;;;5114774;27;20488;-80
2023/08/15 08:50:09;;;;;;;331.38;204.52;;;25.30;99.90;;;;;;5131112;27;20045;-81
2023/08/15 08:52:39;;;;;;;199.55;132.55;;;25.10;99.90;;;;;;5150427;27;20070;-81
2023/08/15 08:55:05;;;;;;;166.75;129.70;;;24.80;99.90;;;;;;5150249;27;20038;-81
2023/08/15 08:57:35;;;;;;;220.00;195.85;;;24.80;99.90;;;;;;5131802;27;20046;-81
2023/08/15 09:00:01;;;;;;;206.90;146.55;;;24.80;99.90;;;;;;5150314;27;20526;-81
2023/08/15 09:02:27;;;;;;;199.50;177.63;;;25.00;99.90;;;;;;5131486;27;20049;-81
2023/08/15 09:04:54;;;;;;;328.08;298.73;;;25.20;99.90;;;;;;5131195;27;20031;-80
2023/08/15 09:07:20;;;;;;;533.13;475.27;;;25.50;99.90;;;;;;5114429;27;20079;-81
2023/08/15 09:09:46;;;;;;;1330.25;845.83;;;25.90;99.90;;;;;;5150008;27;20110;-81
2023/08/15 09:12:35;;;;;;;709.47;551.13;;;26.20;99.90;;;;;;5126344;27;20665;-81
2023/08/15 09:15:00;;;;;;;1851.22;991.70;;;26.50;99.90;;;;;;5152357;27;20042;-81
2023/08/15 09:17:26;;;;;;;1047.45;862.17;;;26.70;99.90;;;;;;5135154;27;20045;-81
2023/08/15 09:19:53;;;;;;;1303.07;719.72;;;26.80;99.90;;;;;;5151616;27;20035;-81
2023/08/15 09:22:23;;;;;;;1104.82;587.13;;;26.40;99.90;;;;;;5134754;27;20038;-81
2023/08/15 09:24:50;;;;;;;872.63;566.72;;;26.10;99.90;;;;;;5152198;27;20109;-81
2023/08/15 09:27:19;;;;;;;807.60;462.33;;;25.70;99.90;;;;;;5137168;27;20039;-80
2023/08/15 09:29:44;;;;;;;1556.70;806.95;;;25.50;99.90;;;;;;5131427;27;20035;-81
2023/08/15 09:32:10;;;;;;;1504.63;885.30;;;25.50;99.90;;;;;;5131359;27;20058;-80
2023/08/15 09:34:36;;;;;;;1484.65;949.30;;;25.60;99.90;;;;;;5130712;27;20074;-81
2023/08/15 09:37:02;;;;;;;1288.53;860.38;;;25.70;99.90;;;;;;5150048;27;20089;-80
2023/08/15 09:39:31;;;;;;;1888.13;999.90;;;26.50;99.90;;;;;;5114255;27;20539;-80
2023/08/15 09:41:56;;;;;;;1999.90;999.90;;;27.20;99.90;;;;;;5140001;27;20041;-81
2023/08/15 09:44:30;;;;;;;1999.90;999.90;;;27.70;99.90;;;;;;5170722;27;20034;-81
2023/08/15 09:46:56;;;;;;;1999.90;815.53;;;27.80;99.90;;;;;;5151675;27;20030;-80
2023/08/15 09:49:22;;;;;;;1999.90;800.50;;;27.60;99.90;;;;;;5151779;27;20536;-81
2023/08/15 09:51:48;;;;;;;1999.90;999.90;;;27.20;99.90;;;;;;5122276;28;20078;-81
2023/08/15 09:54:16;;;;;;;1925.20;401.15;;;27.20;99.90;;;;;;5142446;27;20103;-81
2023/08/15 09:56:42;;;;;;;1999.90;587.63;;;27.20;99.90;;;;;;5131160;27;20039;-81
2023/08/15 09:59:08;;;;;;;1728.55;368.33;;;27.10;99.90;;;;;;5117638;27;20035;-80
2023/08/15 10:01:37;;;;;;;1836.53;367.55;;;27.00;99.90;;;;;;5116955;27;20031;-81
2023/08/15 10:04:07;;;;;;;1999.90;999.90;;;26.80;99.90;;;;;;5153275;27;20037;-81
2023/08/15 10:06:34;;;;;;;1999.90;999.90;;;26.70;99.90;;;;;;5117518;27;20066;-81
2023/08/15 10:09:02;;;;;;;1999.90;999.90;;;26.80;99.90;;;;;;5153700;27;20039;-80
2023/08/15 10:11:33;;;;;;;1999.90;999.90;;;26.80;99.90;;;;;;5134705;27;20121;-81
2023/08/15 10:14:00;;;;;;;1744.93;769.40;;;27.00;99.90;;;;;;5134559;27;20031;-81
2023/08/15 10:16:27;;;;;;;1999.90;999.90;;;27.20;99.90;;;;;;5116901;27;20138;-81
2023/08/15 10:18:54;;;;;;;1999.90;999.90;;;27.20;99.90;;;;;;5134427;27;20094;-81
2023/08/15 10:21:20;;;;;;;1999.90;999.90;;;27.30;99.90;;;;;;5120923;27;20058;-81
2023/08/15 10:23:45;;;;;;;1999.90;999.90;;;27.40;99.90;;;;;;5173314;27;20031;-81
2023/08/15 10:26:11;;;;;;;1999.90;999.90;;;27.50;99.90;;;;;;5154969;27;20087;-81
2023/08/15 10:28:39;;;;;;;1999.90;999.90;;;27.40;99.90;;;;;;5137969;27;20617;-81
2023/08/15 10:31:06;;;;;;;1999.90;999.90;;;27.30;99.90;;;;;;5154340;27;20045;-81
2023/08/15 10:33:32;;;;;;;1999.90;999.90;;;27.10;99.90;;;;;;5155123;27;20042;-81
2023/08/15 10:35:58;;;;;;;1999.90;999.90;;;27.00;99.90;;;;;;5137596;27;20041;-81
2023/08/15 10:38:39;;;;;;;1999.90;999.90;;;27.00;99.90;;;;;;5131059;27;20046;-81
2023/08/15 10:41:07;;;;;;;1999.90;999.90;;;27.10;99.90;;;;;;5104036;27;20038;-81
2023/08/15 10:43:36;;;;;;;1999.90;999.90;;;27.10;99.90;;;;;;5154574;27;20085;-81
2023/08/15 10:46:04;;;;;;;1999.90;999.90;;;27.30;99.90;;;;;;5154407;27;20038;-80
2023/08/15 10:48:43;;;;;;;1999.90;999.90;;;27.30;99.90;;;;;;5173428;27;20038;-81
2023/08/15 10:51:21;;;;;;;1999.90;999.90;;;27.30;99.90;;;;;;5154704;27;20034;-81
2023/08/15 10:53:48;;;;;;;1999.90;999.90;;;27.30;99.90;;;;;;5154793;27;20263;-81
2023/08/15 10:56:20;;;;;;;1999.90;999.90;;;27.50;99.90;;;;;;5130461;27;20034;-81
2023/08/15 10:58:46;;;;;;;1999.90;999.90;;;27.70;99.90;;;;;;5116590;27;20074;-80
2023/08/15 11:01:23;;;;;;;1999.90;999.90;;;28.00;99.90;;;;;;5152120;27;20189;-81
2023/08/15 11:03:51;;;;;;;1999.90;999.90;;;28.10;99.90;;;;;;5133577;27;20035;-81
2023/08/15 11:06:17;;;;;;;1999.90;999.90;;;28.10;99.90;;;;;;5133565;27;20042;-81
2023/08/15 11:08:43;;;;;;;1999.90;999.90;;;28.10;99.90;;;;;;5133142;27;20397;-81
2023/08/15 11:11:09;;;;;;;1999.90;999.90;;;28.10;99.90;;;;;;5116326;27;20046;-81
2023/08/15 11:13:39;;;;;;;1999.90;999.90;;;28.30;99.90;;;;;;5116489;27;20042;-81
2023/08/15 11:16:06;;;;;;;1999.90;999.90;;;28.30;99.90;;;;;;5115799;27;20034;-81
2023/08/15 11:18:32;;;;;;;1999.90;999.90;;;28.40;99.90;;;;;;5133613;27;20396;-81
2023/08/15 11:20:58;;;;;;;1999.90;999.90;;;28.40;99.90;;;;;;5133009;27;20051;-81
2023/08/15 11:23:27;;;;;;;1999.90;999.90;;;28.20;99.90;;;;;;5152152;27;20058;-81
2023/08/15 11:25:52;;;;;;;1999.90;999.90;;;28.40;99.90;;;;;;5141055;27;20030;-81
2023/08/15 11:28:18;;;;;;;1999.90;999.90;;;28.20;99.90;;;;;;5172568;27;20026;-81
2023/08/15 11:30:44;;;;;;;1999.90;999.90;;;28.00;99.90;;;;;;5153583;27;20083;-81
2023/08/15 11:33:10;;;;;;;1999.90;999.90;;;27.80;99.90;;;;;;5153895;27;20101;-81
2023/08/15 11:35:35;;;;;;;1999.90;999.90;;;27.70;99.90;;;;;;5172140;27;20038;-81
2023/08/15 11:38:01;;;;;;;1999.90;999.90;;;27.80;99.90;;;;;;5136877;27;20057;-81
2023/08/15 11:40:27;;;;;;;1999.90;999.90;;;28.00;99.90;;;;;;5165632;27;20134;-81
2023/08/15 11:42:53;;;;;;;1999.90;999.90;;;28.20;99.90;;;;;;5150730;27;20481;-81
2023/08/15 11:45:22;;;;;;;1999.90;999.90;;;28.20;99.90;;;;;;5151459;27;20042;-81
2023/08/15 11:48:03;;;;;;;1999.90;999.90;;;28.30;99.90;;;;;;5132584;27;20038;-81
2023/08/15 11:50:32;;;;;;;1999.90;999.90;;;28.30;99.90;;;;;;5115614;27;20527;-81
2023/08/15 11:52:57;;;;;;;1999.90;999.90;;;28.50;99.90;;;;;;5151315;27;20126;-81
2023/08/15 11:55:24;;;;;;;1999.90;999.90;;;28.80;99.90;;;;;;5153882;27;20106;-81
2023/08/15 11:57:51;;;;;;;1999.90;999.90;;;28.60;99.90;;;;;;5135511;27;20034;-81
2023/08/15 12:00:20;;;;;;;1999.90;999.90;;;28.40;99.90;;;;;;5153426;27;20126;-81
2023/08/15 12:02:48;;;;;;;1999.90;999.90;;;28.10;99.90;;;;;;5135881;27;20095;-80
2023/08/15 12:05:18;;;;;;;1999.90;999.90;;;27.90;99.90;;;;;;5136089;27;20428;-81
2023/08/15 12:07:48;;;;;;;1999.90;999.90;;;27.70;99.90;;;;;;5153061;27;20069;-81
2023/08/15 12:10:15;;;;;;;1999.90;999.90;;;27.60;99.90;;;;;;5153164;27;20101;-81
2023/08/15 12:12:46;;;;;;;1999.90;999.90;;;27.40;99.90;;;;;;5152326;27;20506;-80
2023/08/15 12:15:14;;;;;;;1999.90;999.90;;;27.30;99.90;;;;;;5152827;27;20117;-80
2023/08/15 12:17:40;;;;;;;1999.90;999.90;;;27.30;99.90;;;;;;5153070;27;20034;-80